Time;durP1;ratioP1;P1;durP2;ratioP2;P2;SDS_P1;SDS_P2;PMS_P1;PMS_P2;Temp;Humidity;BMP_temperature;BMP_pressure;BME280_temperature;BME280_humidity;BME280_pressure;Samples;Min_cycle;Max_cycle;Signal;HPM_P1;HPM_P2
2022/06/24 00:01:51;;;;;;;0.30;0.30;;;19.50;99.90;;;;;;4877392;29;20044;-84
2022/06/24 00:04:25;;;;;;;0.30;0.30;;;19.50;99.90;;;;;;4861064;29;20484;-84
2022/06/24 00:06:51;;;;;;;0.35;0.35;;;19.40;99.90;;;;;;4856574;29;20136;-84
2022/06/24 00:09:18;;;;;;;0.30;0.30;;;19.30;99.90;;;;;;4868401;29;20201;-84
2022/06/24 00:11:44;;;;;;;0.10;0.10;;;19.20;99.90;;;;;;4870333;29;20049;-84
2022/06/24 00:14:15;;;;;;;0.10;0.10;;;19.10;99.90;;;;;;4869579;29;20084;-84
2022/06/24 00:17:02;;;;;;;0.47;0.20;;;19.10;99.90;;;;;;4874984;29;20045;-84
2022/06/24 00:19:29;;;;;;;0.13;0.10;;;19.10;99.90;;;;;;4872738;29;20205;-84
2022/06/24 00:21:59;;;;;;;0.13;0.13;;;19.00;99.90;;;;;;4856055;29;20064;-84
2022/06/24 00:24:25;;;;;;;0.10;0.10;;;18.90;99.90;;;;;;4867816;29;20036;-83
2022/06/24 00:26:51;;;;;;;0.17;0.17;;;18.80;99.90;;;;;;4856216;29;20502;-84
2022/06/24 00:29:17;;;;;;;0.10;0.10;;;18.70;99.90;;;;;;4862418;29;20287;-84
2022/06/24 00:32:08;;;;;;;0.30;0.30;;;18.60;99.90;;;;;;4872398;29;20053;-84
2022/06/24 00:34:36;;;;;;;0.20;0.20;;;18.60;99.90;;;;;;4869623;29;20052;-84
2022/06/24 00:37:24;;;;;;;0.10;0.10;;;18.60;99.90;;;;;;4871506;29;20354;-84
2022/06/24 00:39:51;;;;;;;0.30;0.30;;;18.50;99.90;;;;;;4862415;29;20052;-84
2022/06/24 00:42:18;;;;;;;0.25;0.25;;;18.50;99.90;;;;;;4867099;29;20041;-84
2022/06/24 00:44:56;;;;;;;0.57;0.50;;;18.40;99.90;;;;;;4888871;29;20113;-84
2022/06/24 00:47:24;;;;;;;0.13;0.13;;;18.30;99.90;;;;;;4868742;29;20498;-84
2022/06/24 00:49:54;;;;;;;0.10;0.10;;;18.20;99.90;;;;;;4857034;29;20041;-84
2022/06/24 00:52:20;;;;;;;0.10;0.10;;;18.10;99.90;;;;;;4871974;29;20408;-85
2022/06/24 00:54:45;;;;;;;0.50;0.50;;;18.10;99.90;;;;;;4873203;29;20052;-84
2022/06/24 00:57:12;;;;;;;0.08;0.08;;;18.00;99.90;;;;;;4858382;29;20111;-84
2022/06/24 00:59:38;;;;;;;0.35;0.35;;;18.00;99.90;;;;;;4868166;29;20057;-84
2022/06/24 01:02:06;;;;;;;0.40;0.40;;;17.90;99.90;;;;;;4867281;29;20056;-84
2022/06/24 01:04:33;;;;;;;0.10;0.10;;;17.80;99.90;;;;;;4872573;29;20050;-85
2022/06/24 01:06:59;;;;;;;0.20;0.20;;;17.70;99.90;;;;;;4867622;29;20097;-85
2022/06/24 01:09:24;;;;;;;0.10;0.10;;;17.60;99.90;;;;;;4850525;29;20049;-84
2022/06/24 01:11:51;;;;;;;0.10;0.10;;;17.50;99.90;;;;;;4869072;29;20507;-84
2022/06/24 01:14:17;;;;;;;0.28;0.20;;;17.50;99.90;;;;;;4894346;23;20057;-82
2022/06/24 01:16:43;;;;;;;0.00;0.00;;;17.50;99.90;;;;;;4885036;29;20105;-82
2022/06/24 01:19:11;;;;;;;0.10;0.10;;;17.50;99.90;;;;;;4855848;29;20037;-82
2022/06/24 01:21:41;;;;;;;1.85;0.90;;;17.50;99.90;;;;;;4871987;29;20070;-82
2022/06/24 01:24:15;;;;;;;0.00;0.00;;;17.50;99.90;;;;;;4885598;29;20144;-82
2022/06/24 01:26:43;;;;;;;0.35;0.32;;;17.50;99.90;;;;;;4870304;29;20510;-82
2022/06/24 01:29:09;;;;;;;0.00;0.00;;;17.40;99.90;;;;;;4854537;29;20568;-82
2022/06/24 01:31:38;;;;;;;0.10;0.10;;;17.30;99.90;;;;;;4871341;29;20121;-84
2022/06/24 01:34:04;;;;;;;0.10;0.10;;;17.40;99.90;;;;;;4849668;29;20395;-84
2022/06/24 01:36:30;;;;;;;0.13;0.13;;;17.40;99.90;;;;;;4867337;29;20037;-84
2022/06/24 01:38:56;;;;;;;0.10;0.05;;;17.40;99.90;;;;;;4855146;29;20572;-84
2022/06/24 01:41:21;;;;;;;0.00;0.00;;;17.40;99.90;;;;;;4850866;29;20359;-84
2022/06/24 01:43:47;;;;;;;0.57;0.40;;;17.50;99.90;;;;;;4852531;29;20049;-84
2022/06/24 01:46:13;;;;;;;0.08;0.08;;;17.60;99.90;;;;;;4886851;29;20133;-84
2022/06/24 01:48:39;;;;;;;0.43;0.43;;;17.50;99.90;;;;;;4840565;29;20094;-84
2022/06/24 01:51:08;;;;;;;0.10;0.10;;;17.60;99.90;;;;;;4851235;29;20037;-84
2022/06/24 01:53:33;;;;;;;0.08;0.08;;;17.60;99.90;;;;;;4837209;29;20088;-84
2022/06/24 01:55:59;;;;;;;0.25;0.20;;;17.70;99.90;;;;;;4883393;29;20097;-84
2022/06/24 01:58:25;;;;;;;0.08;0.08;;;17.70;99.90;;;;;;4855495;29;20105;-84
2022/06/24 02:00:51;;;;;;;0.10;0.10;;;17.70;99.90;;;;;;4837620;29;20174;-84
2022/06/24 02:03:17;;;;;;;0.00;0.00;;;17.80;99.90;;;;;;4853187;29;20045;-81
2022/06/24 02:05:45;;;;;;;0.10;0.10;;;17.90;99.90;;;;;;4837399;29;20408;-82
2022/06/24 02:08:11;;;;;;;0.03;0.03;;;17.90;99.90;;;;;;4867609;29;20045;-82
2022/06/24 02:13:27;;;;;;;0.10;0.10;;;18.10;99.90;;;;;;4843147;29;20096;-82
2022/06/24 02:16:04;;;;;;;0.10;0.10;;;18.10;99.90;;;;;;4869578;29;20149;-82
2022/06/24 02:18:31;;;;;;;0.10;0.10;;;18.20;99.90;;;;;;4845963;29;20053;-81
2022/06/24 02:20:58;;;;;;;0.10;0.10;;;18.20;99.90;;;;;;4853711;29;20081;-86
2022/06/24 02:23:25;;;;;;;0.30;0.30;;;18.20;99.90;;;;;;4847961;29;20053;-87
2022/06/24 02:25:51;;;;;;;0.98;0.30;;;18.20;99.90;;;;;;4837283;29;20066;-87
2022/06/24 02:28:18;;;;;;;0.45;0.25;;;18.20;99.90;;;;;;4854855;29;20042;-87
2022/06/24 02:30:45;;;;;;;0.00;0.00;;;18.10;99.90;;;;;;4837786;29;20042;-87
2022/06/24 02:33:12;;;;;;;0.10;0.10;;;18.10;99.90;;;;;;4869963;29;20053;-87
2022/06/24 02:35:39;;;;;;;0.32;0.30;;;18.10;99.90;;;;;;4869418;29;20050;-87
2022/06/24 02:38:05;;;;;;;0.10;0.10;;;17.90;99.90;;;;;;4868812;29;20049;-87
2022/06/24 02:40:51;;;;;;;0.22;0.22;;;17.90;99.90;;;;;;4838388;29;20137;-87
2022/06/24 02:43:22;;;;;;;0.20;0.20;;;17.80;99.90;;;;;;4867237;29;20046;-88
2022/06/24 02:46:11;;;;;;;0.20;0.20;;;17.70;99.90;;;;;;4846661;29;20109;-87
2022/06/24 02:48:39;;;;;;;0.10;0.10;;;17.60;99.90;;;;;;4856074;29;20049;-87
2022/06/24 02:51:06;;;;;;;0.30;0.30;;;17.50;99.90;;;;;;4856556;29;20511;-87
2022/06/24 02:53:33;;;;;;;0.20;0.15;;;17.50;99.90;;;;;;4884707;29;20105;-82
2022/06/24 02:56:01;;;;;;;0.20;0.15;;;17.50;99.90;;;;;;4850184;29;20690;-82
2022/06/24 02:58:27;;;;;;;0.00;0.00;;;17.40;99.90;;;;;;4887160;29;20082;-82
2022/06/24 03:00:53;;;;;;;0.20;0.20;;;17.40;99.90;;;;;;4852979;29;20037;-81
2022/06/24 03:03:21;;;;;;;0.20;0.20;;;17.30;99.90;;;;;;4855786;29;20048;-82
2022/06/24 03:05:48;;;;;;;0.10;0.10;;;17.30;99.90;;;;;;4854034;29;20460;-81
2022/06/24 03:08:15;;;;;;;0.20;0.20;;;17.20;99.90;;;;;;4849039;29;20117;-81
2022/06/24 03:10:42;;;;;;;0.32;0.32;;;17.20;99.90;;;;;;4870343;29;20049;-87
2022/06/24 03:13:08;;;;;;;0.10;0.10;;;17.10;99.90;;;;;;4855284;29;20045;-87
2022/06/24 03:15:34;;;;;;;0.08;0.08;;;17.10;99.90;;;;;;4873484;29;20054;-87
2022/06/24 03:18:00;;;;;;;1.75;0.52;;;17.20;99.90;;;;;;4856292;29;20102;-88
2022/06/24 03:20:26;;;;;;;0.05;0.05;;;17.30;99.90;;;;;;4854397;29;20045;-88
2022/06/24 03:22:52;;;;;;;0.22;0.20;;;17.40;99.90;;;;;;4872337;29;20038;-87
2022/06/24 03:25:18;;;;;;;0.08;0.08;;;17.50;99.90;;;;;;4868229;29;20101;-87
2022/06/24 03:27:44;;;;;;;0.13;0.10;;;17.60;99.90;;;;;;4850101;29;20057;-87
2022/06/24 03:30:11;;;;;;;0.15;0.15;;;17.60;99.90;;;;;;4852767;29;20409;-87
2022/06/24 03:32:37;;;;;;;0.20;0.20;;;17.70;99.90;;;;;;4851090;29;20049;-87
2022/06/24 03:35:04;;;;;;;0.22;0.22;;;17.80;99.90;;;;;;4882228;29;20067;-87
2022/06/24 03:37:30;;;;;;;0.20;0.20;;;17.90;99.90;;;;;;4885410;29;20038;-87
2022/06/24 03:39:57;;;;;;;0.08;0.08;;;18.00;99.90;;;;;;4881915;29;20049;-87
2022/06/24 03:42:23;;;;;;;0.10;0.10;;;18.20;99.90;;;;;;4871593;29;20053;-87
2022/06/24 03:44:48;;;;;;;0.63;0.40;;;18.20;99.90;;;;;;4837167;29;20492;-84
2022/06/24 03:47:14;;;;;;;0.68;0.68;;;18.30;99.90;;;;;;4850256;29;20037;-84
2022/06/24 03:49:40;;;;;;;0.15;0.15;;;18.50;99.90;;;;;;4869471;29;20101;-83
2022/06/24 03:52:06;;;;;;;0.30;0.30;;;18.70;99.90;;;;;;4852044;29;20041;-84
2022/06/24 03:54:32;;;;;;;0.10;0.10;;;18.90;99.90;;;;;;4851261;29;20056;-84
2022/06/24 03:56:58;;;;;;;0.65;0.55;;;19.00;99.90;;;;;;4852672;29;20045;-84
2022/06/24 03:59:24;;;;;;;0.25;0.25;;;19.10;99.90;;;;;;4850385;29;20045;-86
2022/06/24 04:01:50;;;;;;;0.52;0.52;;;19.30;99.90;;;;;;4848115;29;20492;-87
2022/06/24 04:04:15;;;;;;;0.20;0.20;;;19.40;99.90;;;;;;4850460;29;20067;-87
2022/06/24 04:06:41;;;;;;;0.20;0.20;;;19.50;99.90;;;;;;4885969;29;20079;-87
2022/06/24 04:09:07;;;;;;;0.30;0.30;;;19.70;99.90;;;;;;4850277;29;20417;-87
2022/06/24 04:11:33;;;;;;;0.28;0.28;;;19.80;99.90;;;;;;4843476;29;20102;-87
2022/06/24 04:14:00;;;;;;;0.13;0.10;;;20.00;99.90;;;;;;4854488;29;20061;-87
2022/06/24 04:16:26;;;;;;;0.10;0.10;;;20.10;99.90;;;;;;4849815;29;20037;-87
2022/06/24 04:18:51;;;;;;;0.40;0.40;;;20.20;99.90;;;;;;4872807;29;20453;-87
2022/06/24 04:21:18;;;;;;;0.10;0.10;;;20.30;99.90;;;;;;4840533;29;20050;-87
2022/06/24 04:23:45;;;;;;;0.20;0.20;;;20.40;99.90;;;;;;4870335;29;20504;-87
2022/06/24 04:26:11;;;;;;;0.30;0.30;;;20.50;99.90;;;;;;4842936;29;20041;-87
2022/06/24 04:28:37;;;;;;;0.55;0.55;;;20.50;99.90;;;;;;4862329;29;20048;-87
2022/06/24 04:31:03;;;;;;;0.95;0.65;;;20.60;99.90;;;;;;4846722;29;20373;-87
2022/06/24 04:33:29;;;;;;;0.77;0.55;;;20.60;99.90;;;;;;4851853;29;20045;-88
2022/06/24 04:35:55;;;;;;;0.63;0.63;;;20.60;99.90;;;;;;4851377;29;20064;-87
2022/06/24 04:38:21;;;;;;;1.33;0.90;;;20.70;99.90;;;;;;4868631;29;20480;-86
2022/06/24 04:40:46;;;;;;;0.00;0.00;;;20.70;99.90;;;;;;4856238;29;20042;-86
2022/06/24 04:43:12;;;;;;;0.50;0.50;;;20.70;99.90;;;;;;4850799;29;20065;-87
2022/06/24 04:45:38;;;;;;;8.35;1.10;;;20.60;99.90;;;;;;4852179;29;20504;-87
2022/06/24 04:48:04;;;;;;;2.20;0.73;;;20.60;99.90;;;;;;4854897;29;20046;-88
2022/06/24 04:50:30;;;;;;;0.57;0.45;;;20.50;99.90;;;;;;4866839;29;20049;-83
2022/06/24 04:52:56;;;;;;;1.38;1.25;;;20.50;99.90;;;;;;4843072;29;20511;-83
2022/06/24 04:55:22;;;;;;;0.10;0.10;;;20.50;99.90;;;;;;4851626;29;20034;-83
2022/06/24 04:57:48;;;;;;;0.10;0.10;;;20.60;99.90;;;;;;4848584;29;20496;-83
2022/06/24 05:00:14;;;;;;;0.30;0.20;;;20.60;99.90;;;;;;4867309;29;20049;-83
2022/06/24 05:02:41;;;;;;;0.00;0.00;;;20.60;99.90;;;;;;4868929;29;20077;-83
2022/06/24 05:05:11;;;;;;;0.45;0.17;;;20.60;99.90;;;;;;4847387;29;20120;-83
2022/06/24 05:07:38;;;;;;;0.20;0.20;;;20.50;99.90;;;;;;4847755;29;20071;-83
2022/06/24 05:10:04;;;;;;;3.55;0.73;;;20.50;99.90;;;;;;4847036;29;20049;-83
2022/06/24 05:12:30;;;;;;;0.00;0.00;;;20.50;99.90;;;;;;4852875;29;20042;-83
2022/06/24 05:14:56;;;;;;;0.00;0.00;;;20.50;99.90;;;;;;4883656;29;20049;-83
2022/06/24 05:17:23;;;;;;;0.00;0.00;;;20.60;99.90;;;;;;4853164;29;20136;-83
2022/06/24 05:19:49;;;;;;;0.15;0.10;;;20.60;99.90;;;;;;4853637;29;20052;-83
2022/06/24 05:22:14;;;;;;;0.30;0.25;;;20.70;99.90;;;;;;4852753;29;20042;-83
2022/06/24 05:24:40;;;;;;;0.47;0.32;;;20.80;99.90;;;;;;4880853;29;20559;-88
2022/06/24 05:27:06;;;;;;;0.25;0.20;;;20.90;99.90;;;;;;4875674;29;20037;-87
2022/06/24 05:29:31;;;;;;;0.30;0.20;;;20.90;99.90;;;;;;4870309;29;20117;-88
2022/06/24 05:31:57;;;;;;;0.00;0.00;;;20.90;99.90;;;;;;4844818;29;20160;-89
2022/06/24 05:34:23;;;;;;;0.40;0.40;;;20.90;99.90;;;;;;4853257;29;20042;-88
2022/06/24 05:36:48;;;;;;;0.55;0.55;;;20.90;99.90;;;;;;4841534;29;20550;-88
2022/06/24 05:39:14;;;;;;;0.20;0.20;;;20.90;99.90;;;;;;4873983;29;20041;-88
2022/06/24 05:41:41;;;;;;;0.00;0.00;;;21.10;99.90;;;;;;4857984;29;20053;-88
2022/06/24 05:44:07;;;;;;;0.08;0.08;;;21.40;99.90;;;;;;4869302;29;20042;-88
2022/06/24 05:46:36;;;;;;;0.10;0.10;;;21.50;99.90;;;;;;4861536;29;20046;-87
2022/06/24 05:49:02;;;;;;;3.72;0.45;;;21.50;99.90;;;;;;4859233;29;20182;-87
2022/06/24 05:51:28;;;;;;;0.65;0.65;;;21.40;99.90;;;;;;4887983;29;20056;-87
2022/06/24 05:56:39;;;;;;;0.08;0.08;;;21.20;99.90;;;;;;4889899;29;20189;-87
2022/06/24 05:59:04;;;;;;;0.70;0.32;;;21.10;99.90;;;;;;4855048;29;20120;-87
2022/06/24 06:01:30;;;;;;;0.30;0.30;;;20.90;99.90;;;;;;4845707;29;20564;-87
2022/06/24 06:03:56;;;;;;;0.05;0.05;;;20.80;99.90;;;;;;4853591;29;20052;-87
2022/06/24 06:06:23;;;;;;;0.00;0.00;;;20.70;99.90;;;;;;4844684;29;20034;-87
2022/06/24 06:08:49;;;;;;;18.42;1.08;;;20.50;99.90;;;;;;4856539;29;20041;-87
2022/06/24 06:11:16;;;;;;;0.47;0.30;;;20.40;99.90;;;;;;4848671;29;20054;-86
2022/06/24 06:13:43;;;;;;;0.00;0.00;;;20.40;99.90;;;;;;4836772;29;20497;-87
2022/06/24 06:16:09;;;;;;;0.10;0.10;;;20.30;99.90;;;;;;4856294;29;20053;-87
2022/06/24 06:18:35;;;;;;;0.00;0.00;;;20.20;99.90;;;;;;4858441;29;20141;-87
2022/06/24 06:21:02;;;;;;;0.40;0.40;;;20.20;99.90;;;;;;4888581;29;20093;-87
2022/06/24 06:23:28;;;;;;;0.00;0.00;;;20.20;99.90;;;;;;4852808;29;20054;-87
2022/06/24 06:26:05;;;;;;;0.10;0.10;;;20.10;99.90;;;;;;4834538;29;20107;-87
2022/06/24 06:28:32;;;;;;;0.00;0.00;;;20.10;99.90;;;;;;4882567;29;20073;-86
2022/06/24 06:30:58;;;;;;;0.38;0.30;;;20.10;99.90;;;;;;4855405;29;20087;-86
2022/06/24 06:33:24;;;;;;;0.22;0.22;;;20.10;99.90;;;;;;4857443;29;20128;-89
2022/06/24 06:35:50;;;;;;;0.03;0.03;;;20.10;99.90;;;;;;4868705;29;20130;-89
2022/06/24 06:38:17;;;;;;;0.70;0.20;;;20.00;99.90;;;;;;4844840;29;20485;-88
2022/06/24 06:40:42;;;;;;;0.20;0.20;;;20.00;99.90;;;;;;4856017;29;20086;-89
2022/06/24 06:43:09;;;;;;;0.10;0.10;;;20.00;99.90;;;;;;4836941;29;20454;-89
2022/06/24 06:45:38;;;;;;;0.13;0.10;;;20.10;99.90;;;;;;4860036;29;20404;-89
2022/06/24 06:48:05;;;;;;;0.10;0.10;;;20.20;99.90;;;;;;4886247;29;20382;-89
2022/06/24 06:50:31;;;;;;;0.10;0.10;;;20.20;99.90;;;;;;4848665;29;20069;-89
2022/06/24 06:52:57;;;;;;;4.30;0.20;;;20.20;99.90;;;;;;4860637;29;20084;-88
2022/06/24 06:55:23;;;;;;;0.10;0.10;;;20.10;99.90;;;;;;4852134;29;20080;-88
2022/06/24 06:57:48;;;;;;;0.43;0.43;;;20.10;99.90;;;;;;4867048;29;20077;-89
2022/06/24 07:00:15;;;;;;;0.10;0.10;;;20.00;99.90;;;;;;4871712;29;20453;-88
2022/06/24 07:02:41;;;;;;;0.10;0.10;;;19.90;99.90;;;;;;4871075;29;20406;-88
2022/06/24 07:05:07;;;;;;;0.10;0.10;;;19.90;99.90;;;;;;4852890;29;20042;-88
2022/06/24 07:07:33;;;;;;;0.03;0.03;;;19.90;99.90;;;;;;4859363;29;20540;-88
2022/06/24 07:09:59;;;;;;;0.10;0.10;;;19.90;99.90;;;;;;4836292;29;20048;-88
2022/06/24 07:12:26;;;;;;;0.08;0.08;;;19.90;99.90;;;;;;4860158;29;20044;-88
2022/06/24 07:14:52;;;;;;;0.00;0.00;;;19.90;99.90;;;;;;4898398;23;20052;-88
2022/06/24 07:17:18;;;;;;;0.20;0.20;;;19.90;99.90;;;;;;4891924;29;20044;-88
2022/06/24 07:19:45;;;;;;;0.10;0.10;;;19.90;99.90;;;;;;4877601;29;20372;-83
2022/06/24 07:22:11;;;;;;;0.25;0.20;;;19.90;99.90;;;;;;4873253;29;20405;-83
2022/06/24 07:24:36;;;;;;;0.13;0.10;;;19.90;99.90;;;;;;4889320;29;20044;-83
2022/06/24 07:27:06;;;;;;;0.00;0.00;;;19.90;99.90;;;;;;4874081;29;20041;-83
2022/06/24 07:29:33;;;;;;;0.00;0.00;;;19.90;99.90;;;;;;4893304;29;20495;-83
2022/06/24 07:32:00;;;;;;;0.38;0.38;;;19.90;99.90;;;;;;4870227;29;20080;-83
2022/06/24 07:34:26;;;;;;;0.10;0.10;;;19.80;99.90;;;;;;4873913;29;20106;-83
2022/06/24 07:36:53;;;;;;;0.00;0.00;;;19.80;99.90;;;;;;4892447;29;20055;-82
2022/06/24 07:39:18;;;;;;;0.00;0.00;;;19.80;99.90;;;;;;4891106;29;20096;-82
2022/06/24 07:41:44;;;;;;;0.40;0.40;;;19.90;99.90;;;;;;4872683;29;20441;-82
2022/06/24 07:44:10;;;;;;;0.00;0.00;;;19.90;99.90;;;;;;4891741;29;20556;-82
2022/06/24 07:46:36;;;;;;;0.10;0.10;;;20.00;99.90;;;;;;4888529;29;20040;-81
2022/06/24 07:49:01;;;;;;;0.00;0.00;;;20.10;99.90;;;;;;4883760;29;20060;-82
2022/06/24 07:51:27;;;;;;;0.10;0.10;;;20.10;99.90;;;;;;4891782;29;20048;-82
2022/06/24 07:53:53;;;;;;;0.05;0.05;;;20.20;99.90;;;;;;4891780;29;20083;-82
2022/06/24 07:59:05;;;;;;;0.00;0.00;;;20.10;99.90;;;;;;4893598;29;20075;-82
2022/06/24 08:01:30;;;;;;;0.10;0.10;;;20.10;99.90;;;;;;4888629;29;20051;-82
2022/06/24 08:03:57;;;;;;;0.10;0.10;;;20.00;99.90;;;;;;4891728;29;20422;-82
2022/06/24 08:06:22;;;;;;;0.35;0.20;;;20.10;99.90;;;;;;4872201;29;20131;-82
2022/06/24 08:08:48;;;;;;;0.00;0.00;;;20.00;99.90;;;;;;4889725;29;20157;-82
2022/06/24 08:11:14;;;;;;;0.00;0.00;;;20.10;99.90;;;;;;4875077;29;20494;-87
2022/06/24 08:13:40;;;;;;;0.00;0.00;;;20.00;99.90;;;;;;4878531;29;20116;-87
2022/06/24 08:16:06;;;;;;;0.10;0.10;;;20.00;99.90;;;;;;4889582;29;20049;-87
2022/06/24 08:18:32;;;;;;;0.00;0.00;;;20.00;99.90;;;;;;4874308;29;20064;-87
2022/06/24 08:20:57;;;;;;;0.10;0.10;;;20.10;99.90;;;;;;4884717;29;20041;-87
2022/06/24 08:23:23;;;;;;;1.48;0.32;;;20.10;99.90;;;;;;4870922;29;20045;-88
2022/06/24 08:25:49;;;;;;;0.00;0.00;;;20.10;99.90;;;;;;4893796;29;20519;-87
2022/06/24 08:28:15;;;;;;;0.28;0.28;;;20.20;99.90;;;;;;4868419;29;20143;-81
2022/06/24 08:30:41;;;;;;;0.10;0.10;;;20.30;99.90;;;;;;4887643;29;20095;-81
2022/06/24 08:33:06;;;;;;;0.10;0.10;;;20.40;99.90;;;;;;4887335;29;20052;-82
2022/06/24 08:35:32;;;;;;;0.00;0.00;;;20.50;99.90;;;;;;4885514;29;20044;-81
2022/06/24 08:37:58;;;;;;;0.05;0.05;;;20.50;99.90;;;;;;4893233;29;20047;-81
2022/06/24 08:40:28;;;;;;;0.28;0.25;;;20.50;99.90;;;;;;4872252;29;20044;-82
2022/06/24 08:42:56;;;;;;;0.00;0.00;;;20.50;99.90;;;;;;4886029;29;20041;-82
2022/06/24 08:45:23;;;;;;;0.55;0.55;;;20.50;99.90;;;;;;4887109;29;20049;-83
2022/06/24 08:47:50;;;;;;;0.10;0.10;;;20.40;99.90;;;;;;4887496;29;20060;-83
2022/06/24 08:50:16;;;;;;;0.05;0.05;;;20.40;99.90;;;;;;4870497;29;20364;-83
2022/06/24 08:52:51;;;;;;;0.08;0.08;;;20.40;99.90;;;;;;4887823;29;20091;-83
2022/06/24 08:55:18;;;;;;;0.10;0.10;;;20.30;99.90;;;;;;4885095;29;20438;-84
2022/06/24 08:57:45;;;;;;;0.20;0.05;;;20.30;99.90;;;;;;4890726;29;20128;-83
2022/06/24 09:00:12;;;;;;;0.00;0.00;;;20.20;99.90;;;;;;4892052;29;20038;-83
2022/06/24 09:02:38;;;;;;;0.20;0.20;;;20.10;99.90;;;;;;4910019;29;20112;-83
2022/06/24 09:05:09;;;;;;;0.10;0.10;;;20.10;99.90;;;;;;4878310;29;20108;-83
2022/06/24 09:07:35;;;;;;;0.00;0.00;;;20.10;99.90;;;;;;4906660;29;20055;-82
2022/06/24 09:10:09;;;;;;;0.30;0.30;;;20.10;99.90;;;;;;4893931;29;20398;-82
2022/06/24 09:12:46;;;;;;;0.20;0.20;;;20.10;99.90;;;;;;4891527;29;20053;-82
2022/06/24 09:15:14;;;;;;;0.20;0.20;;;20.20;99.90;;;;;;4890319;29;20061;-83
2022/06/24 09:17:41;;;;;;;0.08;0.08;;;20.10;99.90;;;;;;4891105;29;20057;-88
2022/06/24 09:20:11;;;;;;;0.52;0.40;;;19.90;99.90;;;;;;4898592;29;20072;-88
2022/06/24 09:22:37;;;;;;;0.30;0.30;;;19.70;99.90;;;;;;4890757;29;20099;-89
2022/06/24 09:25:04;;;;;;;1.10;1.02;;;19.50;99.90;;;;;;4890401;29;20461;-88
2022/06/24 09:27:30;;;;;;;1.23;1.13;;;19.40;99.90;;;;;;4890466;29;20499;-88
2022/06/24 09:29:56;;;;;;;0.20;0.20;;;19.20;99.90;;;;;;4887531;29;20229;-88
2022/06/24 09:32:22;;;;;;;0.20;0.20;;;19.00;99.90;;;;;;4890698;29;20571;-89
2022/06/24 09:35:22;;;;;;;0.05;0.05;;;18.90;99.90;;;;;;4879732;29;20049;-83
2022/06/24 09:37:50;;;;;;;0.08;0.08;;;18.70;99.90;;;;;;4865850;29;20100;-84
2022/06/24 09:40:22;;;;;;;0.98;0.57;;;18.60;99.90;;;;;;4873878;29;20076;-84
2022/06/24 09:42:52;;;;;;;0.10;0.10;;;18.50;99.90;;;;;;4890290;29;20044;-84
2022/06/24 09:45:18;;;;;;;0.90;0.68;;;18.40;99.90;;;;;;4873783;29;20452;-83
2022/06/24 09:47:50;;;;;;;0.45;0.45;;;18.30;99.90;;;;;;4893609;29;20076;-83
2022/06/24 09:50:21;;;;;;;0.75;0.45;;;18.20;99.90;;;;;;4868732;29;20041;-90
2022/06/24 09:52:46;;;;;;;2.55;1.55;;;18.10;99.90;;;;;;4860179;29;20507;-89
2022/06/24 09:55:12;;;;;;;0.00;0.00;;;18.00;99.90;;;;;;4872832;29;20056;-91
2022/06/24 09:57:39;;;;;;;0.00;0.00;;;17.90;99.90;;;;;;4877861;29;20049;-89
2022/06/24 10:02:52;;;;;;;0.20;0.20;;;17.90;99.90;;;;;;4890513;29;20135;-89
2022/06/24 10:05:19;;;;;;;0.10;0.10;;;17.80;99.90;;;;;;4889740;29;20048;-90
2022/06/24 10:07:47;;;;;;;0.10;0.10;;;17.80;99.90;;;;;;4890509;29;20068;-89
2022/06/24 10:10:15;;;;;;;0.38;0.38;;;17.80;99.90;;;;;;4875115;29;20412;-89
2022/06/24 10:12:48;;;;;;;0.15;0.15;;;17.80;99.90;;;;;;4874060;29;20476;-90
2022/06/24 10:15:14;;;;;;;0.10;0.10;;;17.80;99.90;;;;;;4883070;29;20052;-89
2022/06/24 10:17:43;;;;;;;0.30;0.30;;;17.80;99.90;;;;;;4874819;29;20439;-89
2022/06/24 10:20:12;;;;;;;0.10;0.10;;;17.90;99.90;;;;;;4882544;29;20051;-89
2022/06/24 10:22:51;;;;;;;0.25;0.25;;;17.80;99.90;;;;;;4886214;29;20104;-89
2022/06/24 10:25:20;;;;;;;0.22;0.05;;;17.90;99.90;;;;;;4874745;29;20041;-89
2022/06/24 10:27:58;;;;;;;0.13;0.13;;;18.00;99.90;;;;;;4890979;29;20041;-89
2022/06/24 10:30:57;;;;;;;0.00;0.00;;;18.00;99.90;;;;;;4896729;29;20047;-89
2022/06/24 10:33:26;;;;;;;0.00;0.00;;;18.10;99.90;;;;;;4870167;29;20052;-90
2022/06/24 10:35:55;;;;;;;0.10;0.10;;;18.10;99.90;;;;;;4875385;29;20056;-89
2022/06/24 10:38:23;;;;;;;0.03;0.03;;;18.20;99.90;;;;;;4891043;29;20047;-89
2022/06/24 10:40:49;;;;;;;0.52;0.32;;;18.20;99.90;;;;;;4874592;29;20408;-82
2022/06/24 10:43:36;;;;;;;0.00;0.00;;;18.20;99.90;;;;;;4892614;29;20724;-82
2022/06/24 10:46:13;;;;;;;0.10;0.10;;;18.20;99.90;;;;;;4892874;29;20036;-82
2022/06/24 10:48:51;;;;;;;0.28;0.10;;;18.20;99.90;;;;;;4888282;29;20048;-82
2022/06/24 10:51:19;;;;;;;0.03;0.03;;;18.10;99.90;;;;;;4893618;29;20044;-82
2022/06/24 10:54:06;;;;;;;0.00;0.00;;;18.00;99.90;;;;;;4891359;29;20044;-82
2022/06/24 10:56:50;;;;;;;0.13;0.13;;;18.10;99.90;;;;;;4874236;29;20494;-89
2022/06/24 10:59:19;;;;;;;0.20;0.20;;;18.20;99.90;;;;;;4901305;29;20045;-90
2022/06/24 11:01:49;;;;;;;0.10;0.10;;;18.20;99.90;;;;;;4885105;29;20523;-90
2022/06/24 11:04:19;;;;;;;0.20;0.20;;;18.20;99.90;;;;;;4886850;29;20095;-90
2022/06/24 11:07:11;;;;;;;0.10;0.10;;;18.20;99.90;;;;;;4888143;29;20943;-90
2022/06/24 11:09:38;;;;;;;0.10;0.10;;;18.40;99.90;;;;;;4890725;29;20128;-90
2022/06/24 11:12:05;;;;;;;0.00;0.00;;;18.50;99.90;;;;;;4894584;29;20053;-90
2022/06/24 11:14:31;;;;;;;0.03;0.03;;;18.60;99.90;;;;;;4866378;29;20055;-83
2022/06/24 11:16:57;;;;;;;0.00;0.00;;;18.70;99.90;;;;;;4879077;29;20119;-83
2022/06/24 11:19:22;;;;;;;0.43;0.25;;;18.80;99.90;;;;;;4876537;29;20059;-83
2022/06/24 11:21:50;;;;;;;1.55;1.33;;;18.80;99.90;;;;;;4892943;29;20140;-83
2022/06/24 11:24:19;;;;;;;0.00;0.00;;;18.80;99.90;;;;;;4895616;29;20436;-83
2022/06/24 11:27:08;;;;;;;0.20;0.20;;;18.90;99.90;;;;;;4885780;29;20084;-84
2022/06/24 11:29:51;;;;;;;0.00;0.00;;;19.00;99.90;;;;;;4887840;29;20048;-90
2022/06/24 11:32:16;;;;;;;0.13;0.13;;;18.80;99.90;;;;;;4883913;29;20524;-90
2022/06/24 11:34:46;;;;;;;0.05;0.05;;;19.00;99.90;;;;;;4875448;29;20082;-90
2022/06/24 11:37:12;;;;;;;0.00;0.00;;;19.20;99.90;;;;;;4888376;29;20064;-90
2022/06/24 11:39:38;;;;;;;0.08;0.08;;;19.30;99.90;;;;;;4888518;29;20400;-90
2022/06/24 11:42:04;;;;;;;0.10;0.10;;;19.40;99.90;;;;;;4888034;29;20048;-91
2022/06/24 11:44:40;;;;;;;0.20;0.20;;;19.60;99.90;;;;;;4887863;29;20040;-91
2022/06/24 11:47:06;;;;;;;0.30;0.30;;;19.90;99.90;;;;;;4875705;29;20041;-91
2022/06/24 11:49:33;;;;;;;0.10;0.10;;;20.10;99.90;;;;;;4891445;29;20136;-91
2022/06/24 11:52:00;;;;;;;0.10;0.10;;;20.30;99.90;;;;;;4886663;29;20045;-90
2022/06/24 11:54:30;;;;;;;0.73;0.43;;;20.30;99.90;;;;;;4889705;29;20145;-91
2022/06/24 11:56:57;;;;;;;0.10;0.10;;;20.50;99.90;;;;;;4889376;29;20210;-91
2022/06/24 11:59:26;;;;;;;0.00;0.00;;;20.60;99.90;;;;;;4888669;29;20049;-91
2022/06/24 12:01:53;;;;;;;0.00;0.00;;;20.80;99.90;;;;;;4890185;29;20496;-91
2022/06/24 12:04:20;;;;;;;0.10;0.10;;;20.80;99.90;;;;;;4876295;29;20042;-84
2022/06/24 12:06:47;;;;;;;2.17;0.20;;;20.90;99.90;;;;;;4890739;29;20403;-84
2022/06/24 12:09:13;;;;;;;0.00;0.00;;;20.90;99.90;;;;;;4887372;29;20047;-84
2022/06/24 12:11:44;;;;;;;0.00;0.00;;;20.90;99.90;;;;;;4891973;29;20045;-84
2022/06/24 12:14:14;;;;;;;0.10;0.10;;;21.00;99.90;;;;;;4890167;29;20061;-84
2022/06/24 12:16:57;;;;;;;0.43;0.40;;;21.20;99.90;;;;;;4889410;29;21051;-84
2022/06/24 12:19:28;;;;;;;0.63;0.60;;;21.50;99.90;;;;;;4867857;29;20457;-84
2022/06/24 12:22:12;;;;;;;0.35;0.35;;;21.70;99.90;;;;;;4887544;29;20047;-85
2022/06/24 12:24:39;;;;;;;0.45;0.45;;;21.90;99.90;;;;;;4884712;29;20100;-84
2022/06/24 12:27:06;;;;;;;0.77;0.77;;;22.00;99.90;;;;;;4875553;29;20139;-84
2022/06/24 12:29:37;;;;;;;0.28;0.28;;;22.20;99.90;;;;;;4887163;29;20049;-85
2022/06/24 12:32:04;;;;;;;0.70;0.70;;;22.30;99.90;;;;;;4883912;29;20555;-84
2022/06/24 12:34:36;;;;;;;0.30;0.30;;;22.30;99.90;;;;;;4890473;29;20498;-84
2022/06/24 12:37:07;;;;;;;0.52;0.45;;;22.30;99.90;;;;;;4890846;29;20047;-84
2022/06/24 12:39:38;;;;;;;0.17;0.17;;;22.20;99.90;;;;;;4886773;29;20059;-84
2022/06/24 12:42:05;;;;;;;0.30;0.30;;;22.10;99.90;;;;;;4875234;29;20560;-84
2022/06/24 12:44:45;;;;;;;0.30;0.30;;;22.10;99.90;;;;;;4867509;29;20093;-84
2022/06/24 12:52:46;;;;;;;0.65;0.65;;;22.00;99.90;;;;;;4895663;29;20061;-90
2022/06/24 12:55:18;;;;;;;0.20;0.20;;;22.00;99.90;;;;;;4876833;29;20865;-90
2022/06/24 12:57:45;;;;;;;0.80;0.75;;;22.00;99.90;;;;;;4883810;29;20122;-91
2022/06/24 13:00:13;;;;;;;0.22;0.20;;;21.90;99.90;;;;;;4873382;29;20087;-90
2022/06/24 13:02:44;;;;;;;0.15;0.15;;;22.00;99.90;;;;;;4884206;29;20149;-90
2022/06/24 13:05:11;;;;;;;0.20;0.20;;;22.20;99.90;;;;;;4892486;29;20040;-90
2022/06/24 13:07:37;;;;;;;0.03;0.03;;;22.30;99.90;;;;;;4880466;29;20073;-90
2022/06/24 13:10:04;;;;;;;2.25;0.60;;;22.50;99.90;;;;;;4867901;29;20333;-90